createdAt,value
2022-10-10T00:00:20.625Z,10.78
2022-10-10T00:01:19.979Z,10.69
2022-10-10T00:02:22.226Z,10.71
2022-10-10T00:03:22.381Z,10.71
2022-10-10T00:04:22.578Z,10.67
2022-10-10T00:05:22.759Z,10.68
2022-10-10T00:06:23.446Z,10.71
2022-10-10T00:07:23.709Z,10.67
2022-10-10T00:08:23.966Z,10.74
2022-10-10T00:09:24.177Z,10.71
2022-10-10T00:10:24.339Z,10.68
2022-10-10T00:11:24.529Z,10.72
2022-10-10T00:12:26.673Z,10.71
2022-10-10T00:13:25.402Z,10.71
2022-10-10T00:14:23.892Z,10.76
2022-10-10T00:15:26.082Z,10.76
2022-10-10T00:16:24.456Z,10.72
2022-10-10T00:17:26.627Z,10.72
2022-10-10T00:18:24.993Z,10.69
2022-10-10T00:19:27.177Z,10.68
2022-10-10T00:20:25.603Z,10.69
2022-10-10T00:21:25.887Z,10.67
2022-10-10T00:22:26.178Z,10.69
2022-10-10T00:23:28.348Z,10.67
2022-10-10T00:24:28.540Z,10.60
2022-10-10T00:25:27.028Z,10.59
2022-10-10T00:26:29.233Z,10.59
2022-10-10T00:27:28.549Z,10.57
2022-10-10T00:28:29.943Z,10.57
2022-10-10T00:29:28.158Z,10.54
2022-10-10T00:30:28.469Z,10.54
2022-10-10T00:31:28.767Z,10.48
2022-10-10T00:32:32.408Z,10.51
2022-10-10T00:33:31.135Z,10.48
2022-10-10T00:34:29.624Z,10.42
2022-10-10T00:35:31.789Z,10.42
2022-10-10T00:36:30.161Z,10.38
2022-10-10T00:37:30.475Z,10.40
2022-10-10T00:38:32.652Z,10.41
2022-10-10T00:39:32.811Z,10.37
2022-10-10T00:40:31.303Z,10.34
2022-10-10T00:41:33.464Z,10.31
2022-10-10T00:42:32.742Z,10.31
2022-10-10T00:43:32.099Z,10.31
2022-10-10T00:44:34.280Z,10.30
2022-10-10T00:45:34.467Z,10.28
2022-10-10T00:46:32.958Z,10.19
2022-10-10T00:47:34.054Z,10.22
2022-10-10T00:48:33.525Z,10.19
2022-10-10T00:49:35.725Z,10.23
2022-10-10T00:50:35.901Z,10.26
2022-10-10T00:51:34.393Z,10.31
2022-10-10T00:52:34.685Z,10.25
2022-10-10T00:53:34.972Z,10.25
2022-10-10T00:54:37.153Z,10.26
2022-10-10T00:55:35.515Z,10.31
2022-10-10T00:56:35.789Z,10.38
2022-10-10T00:57:36.103Z,10.38
2022-10-10T00:58:36.397Z,10.34
2022-10-10T00:59:36.683Z,10.30
2022-10-10T01:00:37.935Z,10.30
2022-10-10T01:01:37.253Z,10.30
2022-10-10T01:02:37.537Z,10.23
2022-10-10T01:03:39.715Z,10.23
2022-10-10T01:04:44.475Z,10.20
2022-10-10T01:05:40.260Z,10.26
2022-10-10T01:06:38.746Z,10.25
2022-10-10T01:07:41.648Z,10.22
2022-10-10T01:08:39.278Z,10.22
2022-10-10T01:09:41.453Z,10.16
2022-10-10T01:10:39.831Z,10.19
2022-10-10T01:11:40.104Z,10.16
2022-10-10T01:12:42.284Z,10.17
2022-10-10T01:13:40.660Z,10.13
2022-10-10T01:14:40.937Z,10.07
2022-10-10T01:15:43.123Z,10.04
2022-10-10T01:16:41.479Z,10.01
2022-10-10T01:17:41.794Z,10.01
2022-10-10T01:18:45.410Z,10.01
2022-10-10T01:19:42.417Z,9.94
2022-10-10T01:20:42.697Z,9.95
2022-10-10T01:21:43.845Z,9.97
2022-10-10T01:22:43.324Z,9.91
2022-10-10T01:23:45.337Z,9.89
2022-10-10T01:24:45.515Z,9.86
2022-10-10T01:25:45.207Z,9.83
2022-10-10T01:26:45.420Z,9.84
2022-10-10T01:27:46.875Z,9.84
2022-10-10T01:28:45.990Z,9.76
2022-10-10T01:29:45.457Z,9.79
2022-10-10T01:30:47.653Z,9.80
2022-10-10T01:31:46.008Z,9.83
2022-10-10T01:32:48.466Z,9.87
2022-10-10T01:33:47.485Z,9.80
2022-10-10T01:34:47.721Z,9.79
2022-10-10T01:35:49.067Z,9.80
2022-10-10T01:36:48.279Z,9.79
2022-10-10T01:37:47.621Z,9.74
2022-10-10T01:38:49.771Z,9.76
2022-10-10T01:39:49.029Z,9.77
2022-10-10T01:40:50.371Z,9.77
2022-10-10T01:41:50.550Z,9.82
2022-10-10T01:42:51.062Z,9.77
2022-10-10T01:43:50.882Z,9.82
2022-10-10T01:44:49.488Z,9.82
2022-10-10T01:45:49.762Z,9.82
2022-10-10T01:46:50.043Z,9.87
2022-10-10T01:47:52.362Z,9.82
2022-10-10T01:48:52.427Z,9.80
2022-10-10T01:49:52.617Z,9.82
2022-10-10T01:50:52.760Z,9.82
2022-10-10T01:51:53.462Z,9.79
2022-10-10T01:52:52.147Z,9.82
2022-10-10T01:53:53.996Z,9.77
2022-10-10T01:54:54.171Z,9.82
2022-10-10T01:55:53.609Z,9.87
2022-10-10T01:56:52.946Z,9.84
2022-10-10T01:57:53.236Z,9.83
2022-10-10T01:58:54.416Z,9.89
2022-10-10T01:59:55.608Z,9.84
2022-10-10T02:00:55.811Z,9.86
2022-10-10T02:01:56.439Z,9.82
2022-10-10T02:02:56.620Z,9.86
2022-10-10T02:03:56.802Z,9.80
2022-10-10T02:04:56.985Z,9.84
2022-10-10T02:05:57.145Z,9.87
2022-10-10T02:06:57.822Z,9.79
2022-10-10T02:07:56.223Z,9.79
2022-10-10T02:08:58.397Z,9.74
2022-10-10T02:09:58.578Z,9.76
2022-10-10T02:10:58.754Z,9.74
2022-10-10T02:11:58.946Z,9.76
2022-10-10T02:12:59.622Z,9.76
2022-10-10T02:13:58.009Z,9.76
2022-10-10T02:15:00.220Z,9.66
2022-10-10T02:15:58.532Z,9.62
2022-10-10T02:17:00.691Z,9.61
2022-10-10T02:18:00.849Z,9.61
2022-10-10T02:18:59.334Z,9.66
2022-10-10T02:20:01.503Z,9.66
2022-10-10T02:20:59.862Z,9.55
2022-10-10T02:22:00.148Z,9.59
2022-10-10T02:23:03.805Z,9.59
2022-10-10T02:24:00.695Z,9.58
2022-10-10T02:25:02.884Z,9.54
2022-10-10T02:26:01.356Z,9.58
2022-10-10T02:27:01.485Z,9.50
2022-10-10T02:28:03.669Z,9.50
2022-10-10T02:29:02.037Z,9.47
2022-10-10T02:30:04.205Z,9.50
2022-10-10T02:31:02.572Z,9.46
2022-10-10T02:32:02.853Z,9.47
2022-10-10T02:33:05.012Z,9.43
2022-10-10T02:34:05.206Z,9.44
2022-10-10T02:35:05.380Z,9.48
2022-10-10T02:36:03.997Z,9.44
2022-10-10T02:37:04.278Z,9.46
2022-10-10T02:38:06.455Z,9.44
2022-10-10T02:39:04.811Z,9.44
2022-10-10T02:40:06.999Z,9.41
2022-10-10T02:41:07.178Z,9.40
2022-10-10T02:42:05.659Z,9.36
2022-10-10T02:43:05.948Z,9.37
2022-10-10T02:44:06.242Z,9.37
2022-10-10T02:45:06.529Z,9.34
2022-10-10T02:46:08.697Z,9.34
2022-10-10T02:47:07.051Z,9.34
2022-10-10T02:48:09.260Z,9.29
2022-10-10T02:49:09.423Z,9.28
2022-10-10T02:50:07.905Z,9.22
2022-10-10T02:51:10.089Z,9.28
2022-10-10T02:52:08.452Z,9.28
2022-10-10T02:53:10.626Z,9.23
2022-10-10T02:54:08.988Z,9.21
2022-10-10T02:55:09.263Z,9.21
2022-10-10T02:56:09.545Z,9.14
2022-10-10T02:57:09.849Z,9.06
2022-10-10T02:58:10.140Z,9.11
2022-10-10T02:59:10.411Z,9.16
2022-10-10T03:00:10.691Z,9.18
2022-10-10T03:01:11.006Z,9.19
2022-10-10T03:02:13.159Z,9.18
2022-10-10T03:03:14.799Z,9.11
2022-10-10T03:04:11.814Z,9.11
2022-10-10T03:05:12.089Z,9.13
2022-10-10T03:06:14.282Z,9.13
2022-10-10T03:07:14.448Z,9.16
2022-10-10T03:08:15.593Z,9.13
2022-10-10T03:09:15.771Z,9.14
2022-10-10T03:10:13.517Z,9.19
2022-10-10T03:11:15.719Z,9.14
2022-10-10T03:12:15.888Z,9.08
2022-10-10T03:13:14.372Z,9.11
2022-10-10T03:14:14.664Z,9.11
2022-10-10T03:15:14.941Z,9.13
2022-10-10T03:16:17.119Z,9.14
2022-10-10T03:17:15.471Z,9.14
2022-10-10T03:18:17.661Z,9.14
2022-10-10T03:19:16.005Z,9.11
2022-10-10T03:20:19.642Z,9.13
2022-10-10T03:21:19.321Z,9.16
2022-10-10T03:22:16.847Z,9.14
2022-10-10T03:23:19.962Z,9.18
2022-10-10T03:24:18.469Z,9.13
2022-10-10T03:25:18.628Z,9.19
2022-10-10T03:26:18.943Z,9.21
2022-10-10T03:27:19.212Z,9.19
2022-10-10T03:28:20.474Z,9.21
2022-10-10T03:29:18.838Z,9.18
2022-10-10T03:30:19.940Z,9.19
2022-10-10T03:31:21.292Z,9.19
2022-10-10T03:32:21.783Z,9.14
2022-10-10T03:33:21.461Z,9.18
2022-10-10T03:34:22.142Z,9.18
2022-10-10T03:35:21.507Z,9.14
2022-10-10T03:36:21.669Z,9.18
2022-10-10T03:37:22.925Z,9.13
2022-10-10T03:38:23.110Z,9.08
2022-10-10T03:39:23.291Z,9.11
2022-10-10T03:40:23.458Z,9.08
2022-10-10T03:41:24.120Z,9.13
2022-10-10T03:42:23.404Z,9.13
2022-10-10T03:43:25.425Z,9.16
2022-10-10T03:44:24.604Z,9.14
2022-10-10T03:45:23.340Z,9.11
2022-10-10T03:46:23.626Z,9.11
2022-10-10T03:47:23.930Z,9.06
2022-10-10T03:48:24.211Z,9.06
2022-10-10T03:49:25.394Z,9.10
2022-10-10T03:50:24.739Z,9.11
2022-10-10T03:51:26.908Z,9.04
2022-10-10T03:52:27.113Z,9.04
2022-10-10T03:53:27.248Z,9.04
2022-10-10T03:54:27.434Z,9.06
2022-10-10T03:55:28.081Z,9.10
2022-10-10T03:56:28.259Z,9.03
2022-10-10T03:57:28.434Z,9.03
2022-10-10T03:58:27.063Z,9.08
2022-10-10T03:59:29.242Z,9.08
2022-10-10T04:00:27.608Z,9.03
2022-10-10T04:01:27.909Z,9.02
2022-10-10T04:02:28.168Z,9.00
2022-10-10T04:03:28.445Z,9.02
2022-10-10T04:04:30.637Z,9.11
2022-10-10T04:05:28.989Z,9.11
2022-10-10T04:06:29.272Z,9.08
2022-10-10T04:07:31.453Z,9.08
2022-10-10T04:08:31.646Z,9.08
2022-10-10T04:09:31.822Z,9.04
2022-10-10T04:10:32.011Z,9.10
2022-10-10T04:11:32.661Z,9.13
2022-10-10T04:12:32.837Z,9.02
2022-10-10T04:13:31.323Z,8.99
2022-10-10T04:14:33.500Z,8.95
2022-10-10T04:15:33.656Z,8.95
2022-10-10T04:16:33.814Z,8.95
2022-10-10T04:17:33.974Z,8.94
2022-10-10T04:18:32.703Z,8.92
2022-10-10T04:19:34.874Z,8.95
2022-10-10T04:20:33.245Z,8.99
2022-10-10T04:21:35.411Z,8.95
2022-10-10T04:22:33.787Z,8.99
2022-10-10T04:23:34.068Z,8.99
2022-10-10T04:24:34.360Z,9.00
2022-10-10T04:25:34.638Z,8.99
2022-10-10T04:26:36.819Z,8.97
2022-10-10T04:27:35.177Z,9.02
2022-10-10T04:28:35.477Z,9.03
2022-10-10T04:29:35.759Z,8.95
2022-10-10T04:30:37.944Z,8.99
2022-10-10T04:31:36.293Z,8.95
2022-10-10T04:32:36.569Z,9.00
2022-10-10T04:33:36.848Z,8.99
2022-10-10T04:34:37.204Z,8.97
2022-10-10T04:35:40.311Z,8.97
2022-10-10T04:36:37.686Z,8.97
2022-10-10T04:37:37.961Z,9.04
2022-10-10T04:38:38.228Z,9.10
2022-10-10T04:39:40.406Z,9.04
2022-10-10T04:40:40.592Z,9.02
2022-10-10T04:41:39.123Z,9.03
2022-10-10T04:42:41.312Z,9.02
2022-10-10T04:43:39.668Z,8.97
2022-10-10T04:44:41.852Z,9.00
2022-10-10T04:45:40.223Z,9.08
2022-10-10T04:46:40.511Z,9.11
2022-10-10T04:47:40.795Z,9.06
2022-10-10T04:48:42.970Z,9.02
2022-10-10T04:49:43.125Z,9.03
2022-10-10T04:50:41.609Z,9.08
2022-10-10T04:51:41.885Z,9.14
2022-10-10T04:52:42.173Z,9.08
2022-10-10T04:53:44.855Z,9.10
2022-10-10T04:54:43.773Z,9.10
2022-10-10T04:55:42.997Z,9.04
2022-10-10T04:56:43.279Z,9.03
2022-10-10T04:57:43.570Z,9.04
2022-10-10T04:58:45.748Z,9.02
2022-10-10T04:59:45.906Z,9.00
2022-10-10T05:00:44.388Z,9.02
2022-10-10T05:01:47.321Z,9.04
2022-10-10T05:02:44.940Z,9.03
2022-10-10T05:03:45.224Z,9.06
2022-10-10T05:04:47.400Z,9.04
2022-10-10T05:05:45.779Z,9.03
2022-10-10T05:06:46.084Z,9.03
2022-10-10T05:07:46.373Z,9.02
2022-10-10T05:08:46.653Z,8.95
2022-10-10T05:09:48.835Z,8.94
2022-10-10T05:10:47.193Z,8.92
2022-10-10T05:11:47.500Z,8.95
2022-10-10T05:12:48.052Z,8.92
2022-10-10T05:13:48.063Z,8.88
2022-10-10T05:14:50.241Z,8.82
2022-10-10T05:15:48.600Z,8.82
2022-10-10T05:16:50.780Z,8.87
2022-10-10T05:17:49.159Z,8.81
2022-10-10T05:18:49.454Z,8.84
2022-10-10T05:19:52.585Z,8.79
2022-10-10T05:20:50.088Z,8.88
2022-10-10T05:21:51.270Z,8.87
2022-10-10T05:22:54.202Z,8.87
2022-10-10T05:23:53.834Z,8.87
2022-10-10T05:24:52.261Z,8.87
2022-10-10T05:25:52.421Z,8.91
2022-10-10T05:26:52.586Z,8.89
2022-10-10T05:27:53.957Z,8.82
2022-10-10T05:28:53.176Z,8.82
2022-10-10T05:29:52.693Z,8.76
2022-10-10T05:30:54.870Z,8.78
2022-10-10T05:31:53.135Z,8.79
2022-10-10T05:32:53.871Z,8.79
2022-10-10T05:33:55.647Z,8.79
2022-10-10T05:34:54.027Z,8.79
2022-10-10T05:35:54.342Z,8.88
2022-10-10T05:36:55.466Z,8.89
2022-10-10T05:37:56.835Z,8.82
2022-10-10T05:38:57.011Z,8.84
2022-10-10T05:39:57.218Z,8.78
2022-10-10T05:40:56.814Z,8.82
2022-10-10T05:41:57.035Z,8.79
2022-10-10T05:42:57.343Z,8.76
2022-10-10T05:43:58.577Z,8.81
2022-10-10T05:44:58.901Z,8.85
2022-10-10T05:45:59.075Z,8.82
2022-10-10T05:46:59.247Z,8.84
2022-10-10T05:47:57.883Z,8.85
2022-10-10T05:49:00.064Z,8.84
2022-10-10T05:50:00.260Z,8.85
2022-10-10T05:51:00.470Z,8.82
2022-10-10T05:51:59.097Z,8.84
2022-10-10T05:52:59.410Z,8.84
2022-10-10T05:54:01.628Z,8.81
2022-10-10T05:55:00.022Z,8.73
2022-10-10T05:56:00.346Z,8.76
2022-10-10T05:57:00.673Z,8.74
2022-10-10T05:58:02.876Z,8.70
2022-10-10T05:59:03.056Z,8.78
2022-10-10T06:00:03.246Z,8.73
2022-10-10T06:01:03.414Z,8.74
2022-10-10T06:02:04.153Z,8.79
2022-10-10T06:03:04.287Z,8.79
2022-10-10T06:04:04.478Z,8.84
2022-10-10T06:05:04.628Z,8.84
2022-10-10T06:06:07.005Z,8.91
2022-10-10T06:07:03.709Z,8.91
2022-10-10T06:08:11.516Z,8.87
2022-10-10T06:09:05.318Z,8.91
2022-10-10T06:10:04.577Z,8.95
2022-10-10T06:11:04.905Z,8.82
2022-10-10T06:12:05.237Z,8.87
2022-10-10T06:13:05.556Z,8.89
2022-10-10T06:14:07.730Z,8.94
2022-10-10T06:15:07.910Z,8.99
2022-10-10T06:16:08.090Z,8.99
2022-10-10T06:17:06.727Z,8.99
2022-10-10T06:18:08.893Z,8.95
2022-10-10T06:19:13.938Z,8.97
2022-10-10T06:20:10.232Z,9.00
2022-10-10T06:21:09.406Z,9.00
2022-10-10T06:22:08.179Z,9.10
2022-10-10T06:23:10.318Z,9.10
2022-10-10T06:24:08.835Z,9.11
2022-10-10T06:25:23.908Z,9.13
2022-10-10T06:26:12.443Z,9.18
2022-10-10T06:27:09.729Z,9.16
2022-10-10T06:28:10.094Z,9.08
2022-10-10T06:29:10.276Z,9.11
2022-10-10T06:30:10.606Z,9.10
2022-10-10T06:31:12.788Z,9.18
2022-10-10T06:32:12.948Z,9.23
2022-10-10T06:33:13.142Z,9.19
2022-10-10T06:34:14.763Z,9.25
2022-10-10T06:35:12.051Z,9.16
2022-10-10T06:36:14.234Z,9.21
2022-10-10T06:37:12.634Z,9.19
2022-10-10T06:38:14.814Z,9.16
2022-10-10T06:39:13.219Z,9.13
2022-10-10T06:40:15.427Z,9.19
2022-10-10T06:41:15.628Z,9.21
2022-10-10T06:42:14.172Z,9.22
2022-10-10T06:43:16.329Z,9.26
2022-10-10T06:44:14.730Z,9.21
2022-10-10T06:45:15.051Z,9.26
2022-10-10T06:46:17.230Z,9.22
2022-10-10T06:47:15.747Z,9.28
2022-10-10T06:48:16.252Z,9.31
2022-10-10T06:49:16.251Z,9.40
2022-10-10T06:50:18.441Z,9.39
2022-10-10T06:51:18.614Z,9.40
2022-10-10T06:52:17.136Z,9.41
2022-10-10T06:53:17.457Z,9.41
2022-10-10T06:54:17.803Z,9.44
2022-10-10T06:55:18.128Z,9.43
2022-10-10T06:56:23.514Z,9.41
2022-10-10T06:57:21.458Z,9.54
2022-10-10T06:58:18.990Z,9.54
2022-10-10T06:59:19.320Z,9.46
2022-10-10T07:00:19.641Z,9.55
2022-10-10T07:01:21.852Z,9.66
2022-10-10T07:02:20.219Z,9.61
2022-10-10T07:03:20.540Z,9.58
2022-10-10T07:04:20.863Z,9.73
2022-10-10T07:05:21.184Z,9.99
2022-10-10T07:06:23.360Z,10.30
2022-10-10T07:07:21.753Z,10.61
2022-10-10T07:08:22.073Z,10.97
2022-10-10T07:09:22.554Z,11.08
2022-10-10T07:10:22.699Z,11.10
2022-10-10T07:11:25.850Z,11.32
2022-10-10T07:12:29.097Z,11.54
2022-10-10T07:13:26.195Z,11.41
2022-10-10T07:14:24.809Z,11.47
2022-10-10T07:15:25.219Z,11.41
2022-10-10T07:16:24.550Z,11.59
2022-10-10T07:17:26.709Z,11.45
2022-10-10T07:18:25.936Z,11.37
2022-10-10T07:19:26.124Z,11.47
2022-10-10T07:20:27.494Z,11.70
2022-10-10T07:21:27.685Z,11.75
2022-10-10T07:22:27.115Z,11.78
2022-10-10T07:23:27.445Z,12.12
2022-10-10T07:24:26.842Z,11.95
2022-10-10T07:25:29.984Z,12.25
2022-10-10T07:26:29.201Z,12.37
2022-10-10T07:27:29.365Z,12.24
2022-10-10T07:28:29.126Z,12.67
2022-10-10T07:29:30.325Z,12.90
2022-10-10T07:30:28.723Z,12.65
2022-10-10T07:31:30.890Z,12.94
2022-10-10T07:32:30.247Z,12.98
2022-10-10T07:33:30.597Z,12.97
2022-10-10T07:34:31.889Z,12.62
2022-10-10T07:35:30.299Z,12.80
2022-10-10T07:36:32.486Z,12.53
2022-10-10T07:37:30.887Z,12.50
2022-10-10T07:38:31.210Z,12.83
2022-10-10T07:39:33.398Z,13.11
2022-10-10T07:40:31.804Z,13.28
2022-10-10T07:41:32.112Z,13.18
2022-10-10T07:42:32.446Z,13.38
2022-10-10T07:43:32.772Z,13.37
2022-10-10T07:44:35.032Z,13.47
2022-10-10T07:45:33.393Z,13.49
2022-10-10T07:46:33.724Z,13.47
2022-10-10T07:47:34.042Z,13.60
2022-10-10T07:48:34.391Z,13.53
2022-10-10T07:49:36.558Z,13.00
2022-10-10T07:50:34.962Z,12.79
2022-10-10T07:51:37.161Z,13.08
2022-10-10T07:52:36.337Z,13.04
2022-10-10T07:53:37.511Z,13.12
2022-10-10T07:54:37.700Z,13.16
2022-10-10T07:55:38.374Z,13.62
2022-10-10T07:56:38.565Z,13.95
2022-10-10T07:57:38.749Z,13.72
2022-10-10T07:58:38.924Z,13.90
2022-10-10T07:59:37.699Z,13.95
2022-10-10T08:00:39.900Z,14.14
2022-10-10T08:01:40.133Z,14.26
2022-10-10T08:02:40.281Z,14.44
2022-10-10T08:03:40.461Z,14.28
2022-10-10T08:04:39.240Z,14.07
2022-10-10T08:05:41.423Z,14.15
2022-10-10T08:06:39.829Z,13.77
2022-10-10T08:07:42.007Z,13.56
2022-10-10T08:08:50.471Z,13.92
2022-10-10T08:09:41.743Z,14.17
2022-10-10T08:10:41.009Z,14.22
2022-10-10T08:11:43.203Z,14.68
2022-10-10T08:12:41.619Z,14.62
2022-10-10T08:13:43.787Z,15.11
2022-10-10T08:14:42.078Z,15.06
2022-10-10T08:15:42.431Z,14.85
2022-10-10T08:16:44.599Z,14.94
2022-10-10T08:17:44.780Z,15.19
2022-10-10T08:18:44.964Z,15.00
2022-10-10T08:19:43.623Z,14.70
2022-10-10T08:20:46.776Z,14.62
2022-10-10T08:21:44.196Z,14.51
2022-10-10T08:22:45.879Z,14.55
2022-10-10T08:23:46.562Z,14.30
2022-10-10T08:24:45.097Z,14.54
2022-10-10T08:25:45.436Z,14.47
2022-10-10T08:26:45.793Z,14.47
2022-10-10T08:27:46.009Z,14.82
2022-10-10T08:28:48.239Z,14.92
2022-10-10T08:29:46.633Z,14.99
2022-10-10T08:30:46.969Z,14.81
2022-10-10T08:31:47.311Z,15.10
2022-10-10T08:32:47.704Z,15.04
2022-10-10T08:33:49.818Z,14.77
2022-10-10T08:34:48.232Z,14.35
2022-10-10T08:35:48.572Z,15.02
2022-10-10T08:36:48.923Z,15.02
2022-10-10T08:37:49.150Z,15.17
2022-10-10T08:38:51.334Z,14.88
2022-10-10T08:39:49.619Z,15.09
2022-10-10T08:40:49.966Z,14.65
2022-10-10T08:41:50.306Z,14.47
2022-10-10T08:42:53.185Z,14.50
2022-10-10T08:43:50.900Z,14.35
2022-10-10T08:44:51.259Z,14.45
2022-10-10T08:45:52.445Z,14.89
2022-10-10T08:46:51.752Z,15.39
2022-10-10T08:47:51.978Z,15.68
2022-10-10T08:48:54.143Z,15.88
2022-10-10T08:49:52.431Z,15.75
2022-10-10T08:50:52.803Z,16.00
2022-10-10T08:51:53.020Z,15.86
2022-10-10T08:52:53.912Z,15.70
2022-10-10T08:53:55.539Z,15.57
2022-10-10T08:54:58.270Z,15.36
2022-10-10T08:55:54.273Z,15.73
2022-10-10T08:56:54.573Z,15.83
2022-10-10T08:57:54.777Z,16.10
2022-10-10T08:58:56.954Z,15.86
2022-10-10T08:59:57.140Z,15.76
2022-10-10T09:00:55.892Z,15.62
2022-10-10T09:02:17.893Z,15.97
2022-10-10T09:02:57.369Z,15.58
2022-10-10T09:03:58.143Z,15.76
2022-10-10T09:04:57.773Z,16.16
2022-10-10T09:06:00.473Z,16.50
2022-10-10T09:07:00.662Z,16.87
2022-10-10T09:07:59.398Z,17.56
2022-10-10T09:08:59.586Z,17.72
2022-10-10T09:09:59.243Z,17.87
2022-10-10T09:11:00.756Z,17.76
2022-10-10T09:11:59.655Z,17.68
2022-10-10T09:13:00.999Z,17.90
2022-10-10T09:14:00.230Z,17.68
2022-10-10T09:15:02.351Z,17.56
2022-10-10T09:16:01.816Z,17.29
2022-10-10T09:17:00.980Z,17.08
2022-10-10T09:18:02.448Z,17.14
2022-10-10T09:19:00.617Z,17.46
2022-10-10T09:20:00.958Z,17.90
2022-10-10T09:21:01.222Z,18.25
2022-10-10T09:22:01.445Z,18.11
2022-10-10T09:23:03.620Z,18.43
2022-10-10T09:24:02.033Z,18.44
2022-10-10T09:25:02.256Z,17.94
2022-10-10T09:26:08.823Z,17.70
2022-10-10T09:27:04.861Z,17.27
2022-10-10T09:28:04.128Z,16.51
2022-10-10T09:29:05.334Z,16.12
2022-10-10T09:30:04.591Z,15.82
2022-10-10T09:31:06.903Z,15.72
2022-10-10T09:32:04.330Z,15.67
2022-10-10T09:33:06.502Z,15.43
2022-10-10T09:34:04.793Z,15.47
2022-10-10T09:35:05.024Z,15.58
2022-10-10T09:36:07.209Z,15.65
2022-10-10T09:37:05.503Z,15.52
2022-10-10T09:38:06.694Z,15.57
2022-10-10T09:39:05.978Z,15.51
2022-10-10T09:40:06.207Z,15.27
2022-10-10T09:41:06.446Z,15.14
2022-10-10T09:42:08.599Z,15.06
2022-10-10T09:43:10.755Z,15.43
2022-10-10T09:44:08.966Z,15.43
2022-10-10T09:45:09.641Z,15.46
2022-10-10T09:46:09.415Z,15.82
2022-10-10T09:47:10.138Z,16.43
2022-10-10T09:48:08.438Z,16.43
2022-10-10T09:49:08.662Z,16.58
2022-10-10T09:50:09.008Z,16.71
2022-10-10T09:51:10.247Z,16.49
2022-10-10T09:52:11.443Z,16.49
2022-10-10T09:53:09.852Z,16.49
2022-10-10T09:54:10.206Z,16.21
2022-10-10T09:55:10.426Z,16.24
2022-10-10T09:56:11.815Z,16.01
2022-10-10T09:57:14.454Z,15.88
2022-10-10T09:58:13.172Z,15.82
2022-10-10T09:59:13.329Z,15.80
2022-10-10T10:00:13.491Z,15.90
2022-10-10T10:01:15.721Z,16.01
2022-10-10T10:02:12.510Z,15.92
2022-10-10T10:03:14.702Z,16.04
2022-10-10T10:04:30.177Z,16.20
2022-10-10T10:05:14.330Z,16.10
2022-10-10T10:06:15.559Z,15.95
2022-10-10T10:07:15.731Z,15.94
2022-10-10T10:08:14.154Z,15.79
2022-10-10T10:09:16.197Z,15.82
2022-10-10T10:10:16.674Z,15.95
2022-10-10T10:11:16.755Z,15.65
2022-10-10T10:12:15.173Z,15.84
2022-10-10T10:13:17.343Z,15.79
2022-10-10T10:14:15.703Z,16.15
2022-10-10T10:15:19.329Z,16.29
2022-10-10T10:16:18.061Z,16.09
2022-10-10T10:17:18.216Z,15.98
2022-10-10T10:18:16.886Z,15.72
2022-10-10T10:19:20.558Z,15.97
2022-10-10T10:20:17.369Z,16.01
2022-10-10T10:21:17.705Z,15.72
2022-10-10T10:22:23.202Z,15.44
2022-10-10T10:23:19.313Z,15.43
2022-10-10T10:24:19.570Z,15.52
2022-10-10T10:25:18.856Z,15.58
2022-10-10T10:26:19.076Z,15.62
2022-10-10T10:27:19.419Z,15.82
2022-10-10T10:28:21.638Z,15.86
2022-10-10T10:29:20.125Z,16.08
2022-10-10T10:30:20.348Z,15.84
2022-10-10T10:31:20.574Z,16.04
2022-10-10T10:32:22.762Z,15.98
2022-10-10T10:33:21.050Z,15.92
2022-10-10T10:34:23.289Z,15.77
2022-10-10T10:35:23.426Z,15.80
2022-10-10T10:36:22.826Z,15.94
2022-10-10T10:37:22.225Z,16.23
2022-10-10T10:38:22.584Z,16.29
2022-10-10T10:39:22.814Z,16.20
2022-10-10T10:40:24.983Z,16.41
2022-10-10T10:41:23.277Z,17.22
2022-10-10T10:42:23.507Z,17.85
2022-10-10T10:43:23.731Z,17.80
2022-10-10T10:44:24.868Z,17.78
2022-10-10T10:45:26.201Z,17.49
2022-10-10T10:46:24.659Z,17.38
2022-10-10T10:47:24.918Z,17.80
2022-10-10T10:48:25.234Z,18.05
2022-10-10T10:49:28.894Z,18.28
2022-10-10T10:50:25.705Z,18.04
2022-10-10T10:51:27.882Z,17.33
2022-10-10T10:52:26.304Z,17.01
2022-10-10T10:53:26.536Z,17.23
2022-10-10T10:54:29.687Z,17.57
2022-10-10T10:55:27.116Z,18.05
2022-10-10T10:56:29.350Z,18.13
2022-10-10T10:57:36.567Z,18.58
2022-10-10T11:00:17.216Z,18.16
2022-10-10T11:01:55.266Z,18.73
2022-10-10T11:02:51.060Z,18.74
2022-10-10T11:05:22.169Z,18.74
2022-10-10T11:05:24.294Z,18.26
2022-10-10T11:05:39.605Z,18.33
2022-10-10T11:06:34.257Z,18.47
2022-10-10T11:07:32.413Z,18.49
2022-10-10T11:08:30.837Z,18.95
2022-10-10T11:09:49.158Z,18.83
2022-10-10T11:10:34.300Z,18.33
2022-10-10T11:11:34.429Z,18.33
2022-10-10T11:12:31.866Z,18.98
2022-10-10T11:13:33.181Z,19.21
2022-10-10T11:14:35.269Z,18.98
2022-10-10T11:16:04.857Z,18.83
2022-10-10T11:16:47.923Z,19.29
2022-10-10T11:17:37.121Z,19.34
2022-10-10T11:18:33.437Z,19.14
2022-10-10T11:19:34.568Z,18.90
2022-10-10T11:20:33.994Z,19.44
2022-10-10T11:21:37.124Z,19.22
2022-10-10T11:22:34.554Z,18.84
2022-10-10T11:23:37.693Z,19.09
2022-10-10T11:24:35.183Z,19.19
2022-10-10T11:25:35.400Z,19.82
2022-10-10T11:26:39.034Z,20.16
2022-10-10T11:27:36.884Z,20.19
2022-10-10T11:28:37.334Z,20.22
2022-10-10T11:29:37.575Z,20.37
2022-10-10T11:30:37.808Z,20.62
2022-10-10T11:31:39.030Z,19.91
2022-10-10T11:32:39.212Z,19.51
2022-10-10T11:33:38.577Z,20.11
2022-10-10T11:34:38.762Z,20.56
2022-10-10T11:35:38.176Z,19.94
2022-10-10T11:36:40.351Z,19.41
2022-10-10T11:37:40.534Z,19.31
2022-10-10T11:38:38.954Z,19.02
2022-10-10T11:39:39.291Z,18.75
2022-10-10T11:40:39.636Z,18.55
2022-10-10T11:41:40.827Z,18.74
2022-10-10T11:42:41.979Z,17.94
2022-10-10T11:43:42.132Z,18.11
2022-10-10T11:44:41.640Z,18.10
2022-10-10T11:45:42.976Z,17.74
2022-10-10T11:46:43.903Z,17.49
2022-10-10T11:47:41.575Z,17.31
2022-10-10T11:48:41.807Z,17.29
2022-10-10T11:49:43.998Z,17.45
2022-10-10T11:50:42.289Z,17.56
2022-10-10T11:51:42.513Z,17.48
2022-10-10T11:52:42.860Z,17.22
2022-10-10T11:53:43.087Z,17.19
2022-10-10T11:54:45.186Z,17.15
2022-10-10T11:55:43.602Z,17.14
2022-10-10T11:56:43.947Z,17.42
2022-10-10T11:57:44.295Z,17.80
2022-10-10T11:58:44.538Z,17.89
2022-10-10T11:59:46.722Z,17.60
2022-10-10T12:00:45.023Z,17.49
2022-10-10T12:01:47.261Z,18.07
2022-10-10T12:02:45.532Z,18.03
2022-10-10T12:03:47.699Z,18.08
2022-10-10T12:04:45.983Z,17.83
2022-10-10T12:05:46.434Z,18.04
2022-10-10T12:06:48.504Z,18.18
2022-10-10T12:07:48.681Z,18.01
2022-10-10T12:08:48.868Z,17.70
2022-10-10T12:09:49.524Z,17.76
2022-10-10T12:10:51.167Z,17.36
2022-10-10T12:11:48.092Z,17.48
2022-10-10T12:12:50.282Z,17.20
2022-10-10T12:13:50.460Z,17.46
2022-10-10T12:14:50.651Z,17.60
2022-10-10T12:15:50.161Z,17.94
2022-10-10T12:16:51.475Z,18.29
2022-10-10T12:17:51.652Z,18.63
2022-10-10T12:18:50.199Z,18.89
2022-10-10T12:19:52.377Z,19.29
2022-10-10T12:20:53.548Z,19.04
2022-10-10T12:21:51.002Z,19.11
2022-10-10T12:22:51.325Z,18.66
2022-10-10T12:23:51.546Z,18.31
2022-10-10T12:24:53.738Z,18.01
2022-10-10T12:25:53.062Z,17.87
2022-10-10T12:26:52.470Z,17.92
2022-10-10T12:27:52.691Z,18.29
2022-10-10T12:28:53.088Z,18.20
2022-10-10T12:29:55.321Z,18.49
2022-10-10T12:30:58.499Z,18.62
2022-10-10T12:31:53.820Z,18.38
2022-10-10T12:32:54.223Z,18.56
2022-10-10T12:33:54.447Z,19.12
2022-10-10T12:34:56.630Z,18.66
2022-10-10T12:35:54.925Z,17.76
2022-10-10T12:36:56.092Z,17.23
2022-10-10T12:37:55.496Z,17.09
2022-10-10T12:39:00.615Z,17.01
2022-10-10T12:39:58.901Z,16.96
2022-10-10T12:40:56.493Z,16.99
2022-10-10T12:41:58.537Z,17.38
2022-10-10T12:42:56.997Z,17.44
2022-10-10T12:43:59.133Z,17.34
2022-10-10T12:44:57.552Z,17.30
2022-10-10T12:46:01.216Z,17.06
2022-10-10T12:47:02.420Z,17.08
2022-10-10T12:48:05.504Z,16.96
2022-10-10T12:48:59.662Z,16.79
2022-10-10T12:49:58.940Z,16.78
2022-10-10T12:51:01.505Z,16.61
2022-10-10T12:51:59.554Z,16.60
2022-10-10T12:52:59.773Z,16.64
2022-10-10T12:54:01.953Z,16.51
2022-10-10T12:55:06.362Z,16.51
2022-10-10T12:56:02.322Z,16.38
2022-10-10T12:57:00.864Z,16.38
2022-10-10T12:58:01.102Z,16.47
2022-10-10T12:59:03.307Z,16.60
2022-10-10T13:00:02.414Z,16.78
2022-10-10T13:01:02.396Z,16.83
2022-10-10T13:02:02.245Z,16.96
2022-10-10T13:03:02.491Z,16.94
2022-10-10T13:04:04.666Z,17.01
2022-10-10T13:05:02.962Z,16.99
2022-10-10T13:06:03.328Z,16.47
2022-10-10T13:07:03.513Z,16.36
2022-10-10T13:08:03.735Z,16.23
2022-10-10T13:09:05.930Z,16.28